Time;durP1;ratioP1;P1;durP2;ratioP2;P2;SDS_P1;SDS_P2;PMS_P1;PMS_P2;Temp;Humidity;BMP_temperature;BMP_pressure;BME280_temperature;BME280_humidity;BME280_pressure;Samples;Min_cycle;Max_cycle;Signal;HPM_P1;HPM_P2
2021/05/08 00:01:36;;;;;;;23.30;15.67;;;4.90;99.90;;;;;;5001542;28;20288;-78
2021/05/08 00:04:20;;;;;;;22.23;15.40;;;4.80;99.90;;;;;;5008149;28;20618;-78
2021/05/08 00:07:05;;;;;;;21.17;14.53;;;4.80;99.90;;;;;;5011552;28;20259;-78
2021/05/08 00:09:50;;;;;;;21.23;13.33;;;4.80;99.90;;;;;;5010802;28;20309;-78
2021/05/08 00:12:35;;;;;;;20.13;13.83;;;4.80;99.90;;;;;;5010762;28;20692;-78
2021/05/08 00:15:20;;;;;;;22.60;14.53;;;4.80;99.90;;;;;;5002277;28;20221;-78
2021/05/08 00:18:05;;;;;;;19.40;14.40;;;4.70;99.90;;;;;;5010974;28;20244;-78
2021/05/08 00:20:49;;;;;;;22.73;15.27;;;4.70;99.90;;;;;;5010748;28;20784;-76
2021/05/08 00:23:34;;;;;;;21.60;12.93;;;4.70;99.90;;;;;;5010081;28;20600;-79
2021/05/08 00:26:19;;;;;;;23.43;14.10;;;4.70;99.90;;;;;;5010643;28;20248;-78
2021/05/08 00:29:04;;;;;;;21.40;14.57;;;4.60;99.90;;;;;;4995448;28;20313;-77
2021/05/08 00:31:50;;;;;;;24.77;14.23;;;4.60;99.90;;;;;;5007278;28;20473;-78
2021/05/08 00:34:34;;;;;;;22.10;13.27;;;4.60;99.90;;;;;;5000623;28;20216;-77
2021/05/08 00:37:19;;;;;;;19.67;11.63;;;4.60;99.90;;;;;;4999122;28;20202;-78
2021/05/08 00:40:05;;;;;;;21.70;13.23;;;4.60;99.90;;;;;;5002563;28;20283;-77
2021/05/08 00:42:50;;;;;;;20.73;13.07;;;4.50;99.90;;;;;;5008239;28;20300;-76
2021/05/08 00:45:35;;;;;;;19.47;12.50;;;4.50;99.90;;;;;;5000804;28;20291;-78
2021/05/08 00:48:20;;;;;;;16.50;11.23;;;4.50;99.90;;;;;;5011335;28;20256;-78
2021/05/08 00:51:05;;;;;;;18.60;11.73;;;4.40;99.90;;;;;;5014976;28;20289;-78
2021/05/08 00:53:50;;;;;;;16.10;9.97;;;4.30;99.90;;;;;;5005330;28;20672;-78
2021/05/08 00:56:36;;;;;;;14.70;10.27;;;4.30;99.90;;;;;;5014574;28;20236;-78
2021/05/08 00:59:21;;;;;;;17.20;10.77;;;4.30;99.90;;;;;;5011678;28;20227;-78
2021/05/08 01:02:06;;;;;;;16.20;11.20;;;4.20;99.90;;;;;;5010483;28;20204;-77
2021/05/08 01:04:52;;;;;;;19.63;11.13;;;4.20;99.90;;;;;;5012788;28;20688;-78
2021/05/08 01:07:38;;;;;;;20.23;11.83;;;4.10;99.90;;;;;;5014988;28;20300;-78
2021/05/08 01:10:22;;;;;;;21.00;11.80;;;4.10;99.90;;;;;;5002332;28;20235;-76
2021/05/08 01:13:07;;;;;;;22.10;13.50;;;4.00;99.90;;;;;;5010302;28;20223;-78
2021/05/08 01:15:52;;;;;;;26.93;15.67;;;4.00;99.90;;;;;;5013745;28;20228;-77
2021/05/08 01:18:36;;;;;;;29.07;16.20;;;4.00;99.90;;;;;;4998579;28;20208;-76
2021/05/08 01:21:22;;;;;;;24.17;16.17;;;4.00;99.90;;;;;;5015683;28;20254;-78
2021/05/08 01:24:08;;;;;;;22.57;13.83;;;4.00;99.90;;;;;;5013815;28;20232;-77
2021/05/08 01:26:53;;;;;;;24.53;13.53;;;4.00;99.90;;;;;;5008602;28;20239;-78
2021/05/08 01:29:38;;;;;;;24.53;14.17;;;4.00;99.90;;;;;;5002932;28;20743;-77
2021/05/08 01:32:23;;;;;;;21.43;13.80;;;4.00;99.90;;;;;;5005311;28;20227;-78
2021/05/08 01:35:09;;;;;;;22.77;13.00;;;4.00;99.90;;;;;;5015420;28;20220;-78
2021/05/08 01:37:54;;;;;;;20.70;13.37;;;4.00;99.90;;;;;;5012028;28;20215;-78
2021/05/08 01:40:41;;;;;;;23.73;13.30;;;4.00;99.90;;;;;;5003313;28;20303;-76
2021/05/08 01:43:27;;;;;;;22.37;13.77;;;4.00;99.90;;;;;;5009999;28;20569;-76
2021/05/08 01:46:11;;;;;;;22.83;13.67;;;4.00;99.90;;;;;;5005802;28;20201;-77
2021/05/08 01:48:56;;;;;;;20.43;12.93;;;4.10;99.90;;;;;;5001656;28;20636;-78
2021/05/08 01:51:41;;;;;;;22.00;13.63;;;4.10;99.90;;;;;;5012420;28;20341;-77
2021/05/08 01:54:26;;;;;;;22.03;13.20;;;4.10;99.90;;;;;;5009344;28;20734;-77
2021/05/08 01:57:11;;;;;;;22.73;13.33;;;4.10;99.90;;;;;;5012619;28;20224;-77
2021/05/08 01:59:56;;;;;;;23.40;13.90;;;4.10;99.90;;;;;;5007325;28;20251;-77
2021/05/08 02:02:40;;;;;;;24.07;14.07;;;4.10;99.90;;;;;;5013193;28;20256;-78
2021/05/08 02:05:28;;;;;;;24.00;14.60;;;4.20;99.90;;;;;;5006394;28;20267;-77
2021/05/08 02:08:14;;;;;;;25.17;15.00;;;4.20;99.90;;;;;;5006223;28;20197;-77
2021/05/08 02:11:00;;;;;;;23.23;14.73;;;4.20;99.90;;;;;;5002864;28;20245;-78
2021/05/08 02:13:44;;;;;;;25.90;15.70;;;4.30;99.90;;;;;;5013179;28;20259;-77
2021/05/08 02:16:29;;;;;;;24.23;15.90;;;4.30;99.90;;;;;;5021603;28;20235;-81
2021/05/08 02:19:14;;;;;;;27.63;16.30;;;4.30;99.90;;;;;;5031021;28;20208;-80
2021/05/08 02:21:59;;;;;;;24.63;15.80;;;4.40;99.90;;;;;;5011469;28;20299;-78
2021/05/08 02:24:44;;;;;;;23.97;15.87;;;4.40;99.90;;;;;;5013575;28;20223;-78
2021/05/08 02:27:30;;;;;;;24.47;15.43;;;4.50;99.90;;;;;;4999293;28;20203;-78
2021/05/08 02:30:18;;;;;;;24.23;15.73;;;4.60;99.90;;;;;;5001518;28;20232;-78
2021/05/08 02:33:04;;;;;;;24.90;16.03;;;4.60;99.90;;;;;;5014599;28;20215;-78
2021/05/08 02:35:49;;;;;;;25.77;15.53;;;4.70;99.90;;;;;;5012504;28;20286;-80
2021/05/08 02:38:33;;;;;;;24.67;15.20;;;4.80;99.90;;;;;;5003205;28;20275;-78
2021/05/08 02:41:18;;;;;;;25.90;15.67;;;4.90;99.90;;;;;;5007199;28;20214;-78
2021/05/08 02:44:04;;;;;;;20.77;14.93;;;4.90;99.90;;;;;;5011925;28;20664;-77
2021/05/08 02:46:49;;;;;;;22.17;14.73;;;5.00;99.90;;;;;;5000152;28;20741;-79
2021/05/08 02:49:33;;;;;;;21.67;15.67;;;5.20;99.90;;;;;;5011623;28;20602;-77
2021/05/08 02:52:18;;;;;;;23.57;14.00;;;5.00;99.90;;;;;;5008511;28;20256;-78
2021/05/08 02:55:04;;;;;;;21.00;13.47;;;5.10;99.90;;;;;;5007623;28;20255;-78
2021/05/08 02:57:49;;;;;;;21.43;14.33;;;5.10;99.90;;;;;;5003561;28;20642;-79
2021/05/08 03:00:35;;;;;;;24.17;15.03;;;5.10;99.90;;;;;;5006820;28;20278;-78
2021/05/08 03:03:20;;;;;;;22.63;15.17;;;5.20;99.90;;;;;;5004312;28;20300;-78
2021/05/08 03:06:05;;;;;;;20.00;14.93;;;5.20;99.90;;;;;;5014405;28;20687;-78
2021/05/08 03:08:50;;;;;;;23.47;15.47;;;5.20;99.90;;;;;;5018115;28;20199;-78
2021/05/08 03:11:35;;;;;;;21.60;14.03;;;5.30;99.90;;;;;;5019585;28;20239;-78
2021/05/08 03:14:19;;;;;;;22.10;13.57;;;5.30;99.90;;;;;;5011369;28;20219;-77
2021/05/08 03:17:06;;;;;;;20.13;14.27;;;5.30;99.90;;;;;;5015705;28;20213;-78
2021/05/08 03:19:51;;;;;;;21.00;14.20;;;5.30;99.90;;;;;;5012093;28;20273;-78
2021/05/08 03:22:35;;;;;;;22.50;14.57;;;5.30;99.90;;;;;;5011987;28;20207;-77
2021/05/08 03:25:20;;;;;;;20.37;13.80;;;5.30;99.90;;;;;;5010215;28;20328;-77
2021/05/08 03:28:05;;;;;;;24.40;16.03;;;5.30;99.90;;;;;;4998990;28;20298;-78
2021/05/08 03:30:50;;;;;;;23.43;16.47;;;5.30;99.90;;;;;;5005532;28;20895;-77
2021/05/08 03:33:35;;;;;;;23.30;16.03;;;5.30;99.90;;;;;;5011955;28;20209;-78
2021/05/08 03:36:20;;;;;;;23.47;15.33;;;5.30;99.90;;;;;;5027473;28;20763;-76
2021/05/08 03:39:05;;;;;;;23.73;15.53;;;5.30;99.90;;;;;;5019379;28;20247;-77
2021/05/08 03:41:50;;;;;;;21.77;15.27;;;5.30;99.90;;;;;;5008272;28;20242;-77
2021/05/08 03:44:35;;;;;;;22.60;14.40;;;5.20;99.90;;;;;;5025354;28;20208;-77
2021/05/08 03:47:19;;;;;;;18.80;13.13;;;5.20;99.90;;;;;;5018787;28;20276;-77
2021/05/08 03:50:06;;;;;;;20.70;13.57;;;5.20;99.90;;;;;;4998778;28;20229;-77
2021/05/08 03:52:51;;;;;;;18.37;11.47;;;5.20;99.90;;;;;;5006711;28;20212;-79
2021/05/08 03:55:37;;;;;;;17.47;10.77;;;5.20;99.90;;;;;;5002355;28;20216;-76
2021/05/08 03:58:25;;;;;;;17.77;10.90;;;5.10;99.90;;;;;;5012584;28;20567;-77
2021/05/08 04:01:10;;;;;;;15.63;10.87;;;5.10;99.90;;;;;;5011420;28;20202;-76
2021/05/08 04:03:55;;;;;;;16.27;10.53;;;5.10;99.90;;;;;;5007910;28;20800;-76
2021/05/08 04:06:41;;;;;;;15.50;9.60;;;5.10;99.90;;;;;;5011343;28;20192;-76
2021/05/08 04:09:25;;;;;;;15.03;9.27;;;5.10;99.90;;;;;;5000161;28;20315;-77
2021/05/08 04:12:10;;;;;;;12.60;8.77;;;5.10;99.90;;;;;;5021424;28;20199;-76
2021/05/08 04:14:55;;;;;;;13.73;8.90;;;5.00;99.90;;;;;;5014503;28;20256;-78
2021/05/08 04:17:40;;;;;;;13.60;8.67;;;5.00;99.90;;;;;;5015780;28;20259;-76
2021/05/08 04:20:24;;;;;;;13.27;8.03;;;5.00;99.90;;;;;;5019965;28;20243;-76
2021/05/08 04:23:10;;;;;;;14.90;8.90;;;5.00;99.90;;;;;;5023150;28;20203;-78
2021/05/08 04:25:55;;;;;;;13.70;8.83;;;5.00;99.90;;;;;;5018148;28;20256;-77
2021/05/08 04:28:39;;;;;;;14.90;8.93;;;5.00;99.90;;;;;;5013086;28;20205;-77
2021/05/08 04:31:24;;;;;;;13.40;8.53;;;5.00;99.90;;;;;;5007419;28;20207;-77
2021/05/08 04:34:09;;;;;;;12.83;8.30;;;5.00;99.90;;;;;;5013872;28;20247;-75
2021/05/08 04:36:53;;;;;;;14.17;9.30;;;5.00;99.90;;;;;;5009566;28;20288;-79
2021/05/08 04:39:39;;;;;;;13.80;9.00;;;5.00;99.90;;;;;;5012632;28;20727;-76
2021/05/08 04:42:24;;;;;;;12.77;9.17;;;5.10;99.90;;;;;;5015513;28;20281;-78
2021/05/08 04:45:09;;;;;;;14.47;8.20;;;5.10;99.90;;;;;;5011450;28;20208;-77
2021/05/08 04:47:59;;;;;;;14.23;9.33;;;5.20;99.90;;;;;;5013337;28;20204;-78
2021/05/08 04:50:44;;;;;;;12.97;8.33;;;5.30;99.90;;;;;;5008524;28;20232;-77
2021/05/08 04:53:28;;;;;;;15.70;9.13;;;5.40;99.90;;;;;;5013356;28;20263;-77
2021/05/08 04:56:15;;;;;;;14.33;8.13;;;5.40;99.90;;;;;;5006019;28;20239;-78
2021/05/08 04:59:00;;;;;;;14.47;8.03;;;5.50;99.90;;;;;;5011360;28;20223;-78
2021/05/08 05:01:45;;;;;;;12.30;8.33;;;5.60;99.90;;;;;;5013742;28;20296;-78
2021/05/08 05:04:30;;;;;;;12.37;8.20;;;5.70;99.90;;;;;;5010873;28;20202;-78
2021/05/08 05:07:14;;;;;;;13.87;8.50;;;5.80;99.90;;;;;;5012706;28;20247;-77
2021/05/08 05:09:59;;;;;;;10.40;7.20;;;5.90;99.90;;;;;;5011301;28;20244;-78
2021/05/08 05:12:46;;;;;;;12.27;8.63;;;6.00;99.90;;;;;;5022788;28;20204;-78
2021/05/08 05:15:31;;;;;;;11.73;6.90;;;6.10;99.90;;;;;;5048781;28;20384;-78
2021/05/08 05:18:17;;;;;;;13.37;8.30;;;6.20;99.90;;;;;;5014272;28;20227;-79
2021/05/08 05:21:02;;;;;;;12.10;7.60;;;6.30;99.90;;;;;;5012645;28;20208;-78
2021/05/08 05:23:48;;;;;;;11.33;7.57;;;6.40;99.90;;;;;;5032716;28;20211;-78
2021/05/08 05:26:33;;;;;;;10.27;7.47;;;6.40;99.90;;;;;;5038087;28;20267;-78
2021/05/08 05:29:19;;;;;;;11.27;7.27;;;6.50;99.90;;;;;;5026057;28;20265;-79
2021/05/08 05:32:05;;;;;;;12.57;7.73;;;6.60;99.90;;;;;;5024966;28;20200;-77
2021/05/08 05:34:50;;;;;;;12.60;7.63;;;6.60;99.90;;;;;;5012848;28;20266;-78
2021/05/08 05:37:35;;;;;;;12.03;7.40;;;6.70;99.90;;;;;;5016436;28;20842;-78
2021/05/08 05:40:20;;;;;;;12.43;7.80;;;6.80;99.90;;;;;;5018488;28;20283;-77
2021/05/08 05:43:05;;;;;;;11.47;7.80;;;6.90;99.90;;;;;;5016059;28;20251;-79
2021/05/08 05:45:50;;;;;;;9.07;7.13;;;7.00;99.90;;;;;;5012773;28;20212;-78
2021/05/08 05:48:35;;;;;;;12.50;7.40;;;7.10;99.90;;;;;;5003605;28;20854;-78
2021/05/08 05:51:20;;;;;;;11.13;6.53;;;7.30;99.90;;;;;;5014124;28;20208;-78
2021/05/08 05:54:05;;;;;;;11.03;7.23;;;7.40;99.90;;;;;;5011425;28;20230;-79
2021/05/08 05:56:49;;;;;;;12.27;7.00;;;7.50;99.90;;;;;;5012360;28;20235;-78
2021/05/08 05:59:34;;;;;;;10.67;6.50;;;7.70;99.90;;;;;;5012802;28;20231;-78
2021/05/08 06:02:19;;;;;;;12.27;6.93;;;7.80;99.90;;;;;;5007806;28;20263;-79
2021/05/08 06:05:05;;;;;;;11.33;7.10;;;7.90;99.90;;;;;;5008163;28;20207;-78
2021/05/08 06:07:50;;;;;;;9.70;6.90;;;8.10;99.90;;;;;;5012111;28;20259;-79
2021/05/08 06:10:35;;;;;;;10.13;6.60;;;8.20;99.90;;;;;;5008777;28;20316;-77
2021/05/08 06:13:20;;;;;;;11.37;7.07;;;8.40;99.90;;;;;;5003583;28;20224;-78
2021/05/08 06:16:06;;;;;;;12.20;7.40;;;8.50;99.90;;;;;;5008742;28;20715;-77
2021/05/08 06:18:52;;;;;;;12.00;7.10;;;8.70;99.90;;;;;;5001649;28;20216;-77
2021/05/08 06:21:38;;;;;;;10.30;7.10;;;8.90;99.90;;;;;;4999403;28;20216;-78
2021/05/08 06:24:23;;;;;;;9.67;6.17;;;9.00;99.90;;;;;;5000051;28;20291;-78
2021/05/08 06:27:08;;;;;;;12.50;7.70;;;9.20;99.90;;;;;;5004167;28;20212;-78
2021/05/08 06:29:53;;;;;;;12.63;7.47;;;9.40;99.90;;;;;;5008996;28;20371;-77
2021/05/08 06:32:38;;;;;;;11.47;6.50;;;9.50;99.90;;;;;;5018824;28;20300;-77
2021/05/08 06:35:24;;;;;;;10.17;5.97;;;9.60;99.90;;;;;;5006092;28;20571;-78
2021/05/08 06:38:09;;;;;;;10.67;6.03;;;9.80;99.90;;;;;;5009348;28;20211;-78
2021/05/08 06:40:53;;;;;;;10.23;6.80;;;9.90;99.90;;;;;;4997778;28;20240;-77
2021/05/08 06:43:38;;;;;;;8.47;6.83;;;10.10;99.90;;;;;;4992395;28;20212;-77
2021/05/08 06:46:23;;;;;;;9.10;5.80;;;10.20;99.90;;;;;;4993696;28;20631;-76
2021/05/08 06:49:07;;;;;;;9.03;6.03;;;10.30;99.90;;;;;;5007743;28;20302;-75
2021/05/08 06:51:53;;;;;;;10.50;6.87;;;10.40;99.90;;;;;;5006999;28;20200;-76
2021/05/08 06:54:39;;;;;;;9.70;6.67;;;10.50;99.90;;;;;;5002373;28;20648;-76
2021/05/08 06:57:24;;;;;;;10.57;6.30;;;10.60;99.90;;;;;;5010623;28;20727;-76
2021/05/08 07:00:09;;;;;;;10.03;6.27;;;10.70;99.90;;;;;;5010440;28;20278;-76
2021/05/08 07:02:54;;;;;;;11.13;6.87;;;10.80;99.90;;;;;;5012558;28;20315;-77
2021/05/08 07:05:39;;;;;;;9.77;6.67;;;10.90;99.90;;;;;;5007143;28;20203;-77
2021/05/08 07:08:25;;;;;;;13.30;7.23;;;10.90;99.90;;;;;;5009903;28;21119;-77
2021/05/08 07:11:10;;;;;;;8.50;5.20;;;11.00;99.90;;;;;;5006498;28;20302;-77
2021/05/08 07:13:54;;;;;;;13.93;6.40;;;11.10;99.90;;;;;;5006515;28;20259;-76
2021/05/08 07:16:39;;;;;;;9.13;6.80;;;11.20;99.90;;;;;;5007242;28;20220;-77
2021/05/08 07:19:23;;;;;;;10.50;6.53;;;11.20;99.90;;;;;;5009669;28;20275;-77
2021/05/08 07:22:08;;;;;;;10.47;6.90;;;11.20;99.90;;;;;;5010337;28;20208;-79
2021/05/08 07:24:53;;;;;;;9.67;6.60;;;11.30;99.90;;;;;;5015537;28;20585;-78
2021/05/08 07:27:38;;;;;;;12.07;7.00;;;11.30;99.90;;;;;;5011711;28;20227;-79
2021/05/08 07:30:23;;;;;;;10.77;6.97;;;11.40;99.90;;;;;;5008327;28;20278;-80
2021/05/08 07:33:09;;;;;;;9.30;6.40;;;11.50;99.90;;;;;;5012492;28;20212;-80
2021/05/08 07:35:54;;;;;;;10.73;6.60;;;11.50;99.90;;;;;;5003484;28;20227;-79
2021/05/08 07:38:39;;;;;;;12.00;7.20;;;11.60;99.90;;;;;;5006632;28;20274;-76
2021/05/08 07:41:25;;;;;;;9.10;5.57;;;11.70;99.90;;;;;;5002331;28;20317;-76
2021/05/08 07:44:09;;;;;;;9.10;7.00;;;11.70;99.90;;;;;;5009340;28;20744;-75
2021/05/08 07:46:54;;;;;;;11.37;6.97;;;11.80;99.90;;;;;;4995231;28;20650;-77
2021/05/08 07:49:39;;;;;;;10.67;5.97;;;11.90;99.90;;;;;;5007083;28;20263;-78
2021/05/08 07:52:24;;;;;;;11.80;7.33;;;11.90;99.90;;;;;;5006134;28;20292;-78
2021/05/08 07:55:09;;;;;;;9.93;6.33;;;12.00;99.90;;;;;;4991484;28;20290;-77
2021/05/08 07:57:55;;;;;;;10.20;6.70;;;12.10;99.90;;;;;;5016376;28;20235;-78
2021/05/08 08:00:39;;;;;;;11.47;6.90;;;12.10;99.90;;;;;;4992397;28;20236;-78
2021/05/08 08:03:24;;;;;;;11.33;7.23;;;12.20;99.90;;;;;;5011386;28;20245;-78
2021/05/08 08:06:09;;;;;;;11.80;7.03;;;12.20;99.90;;;;;;5015572;28;20207;-77
2021/05/08 08:08:54;;;;;;;8.93;6.40;;;12.40;99.90;;;;;;5023938;28;20192;-78
2021/05/08 08:11:38;;;;;;;8.47;5.83;;;12.40;99.90;;;;;;5041345;28;20691;-78
2021/05/08 08:14:24;;;;;;;9.83;7.03;;;12.40;99.90;;;;;;5010668;28;20230;-78
2021/05/08 08:17:08;;;;;;;10.13;5.97;;;12.50;99.90;;;;;;5028996;28;20339;-79
2021/05/08 08:19:53;;;;;;;10.70;8.17;;;12.60;99.90;;;;;;5030550;28;20315;-76
2021/05/08 08:22:39;;;;;;;9.23;6.03;;;12.60;99.90;;;;;;5005379;28;20467;-76
2021/05/08 08:25:24;;;;;;;10.83;6.40;;;12.70;99.90;;;;;;5022272;28;20258;-77
2021/05/08 08:28:09;;;;;;;11.73;6.73;;;12.70;99.90;;;;;;5021723;28;20271;-76
2021/05/08 08:30:54;;;;;;;10.33;7.07;;;12.80;99.90;;;;;;5009422;28;20236;-76
2021/05/08 08:33:39;;;;;;;10.60;6.67;;;12.80;99.90;;;;;;5009887;28;20218;-76
2021/05/08 08:36:24;;;;;;;9.37;6.60;;;12.80;99.90;;;;;;5009382;28;20260;-76
2021/05/08 08:39:08;;;;;;;8.93;6.50;;;12.90;99.90;;;;;;5009172;28;20228;-76
2021/05/08 08:41:53;;;;;;;9.23;6.27;;;12.90;99.90;;;;;;5010880;28;20575;-76
2021/05/08 08:44:39;;;;;;;9.20;6.43;;;13.00;99.90;;;;;;5006978;28;20256;-76
2021/05/08 08:47:28;;;;;;;9.67;7.33;;;13.00;99.90;;;;;;5003581;28;20208;-78
2021/05/08 08:50:14;;;;;;;10.77;7.00;;;13.10;99.90;;;;;;4998357;28;20224;-76
2021/05/08 08:52:59;;;;;;;9.60;6.33;;;13.20;99.90;;;;;;5006331;28;20738;-76
2021/05/08 08:55:51;;;;;;;9.13;6.27;;;13.30;99.90;;;;;;4997096;28;20213;-76
2021/05/08 08:58:38;;;;;;;10.50;6.80;;;13.30;99.90;;;;;;5024108;28;20209;-76
2021/05/08 09:01:23;;;;;;;8.90;6.00;;;13.40;99.90;;;;;;5027295;28;20217;-76
2021/05/08 09:04:10;;;;;;;12.27;6.73;;;13.50;99.90;;;;;;5016049;28;20256;-76
2021/05/08 09:06:55;;;;;;;9.67;6.57;;;13.70;99.90;;;;;;5030619;28;20623;-76
2021/05/08 09:09:40;;;;;;;10.80;6.13;;;13.80;99.90;;;;;;5031703;28;20766;-77
2021/05/08 09:12:29;;;;;;;10.90;6.50;;;13.90;99.90;;;;;;5023490;28;20616;-76
2021/05/08 09:15:14;;;;;;;9.40;6.13;;;14.10;99.90;;;;;;5012965;28;20208;-76
2021/05/08 09:18:00;;;;;;;10.93;5.67;;;14.30;99.90;;;;;;5014618;28;20676;-78
2021/05/08 09:20:47;;;;;;;10.43;5.73;;;14.40;99.90;;;;;;5011949;28;20249;-76
2021/05/08 09:23:34;;;;;;;9.03;5.93;;;14.60;99.90;;;;;;5014735;28;20588;-76
2021/05/08 09:26:19;;;;;;;11.67;6.53;;;14.70;99.90;;;;;;5004620;28;20242;-76
2021/05/08 09:29:15;;;;;;;10.43;5.50;;;14.90;99.90;;;;;;5011673;28;20673;-76
2021/05/08 09:32:04;;;;;;;9.93;5.63;;;15.00;98.60;;;;;;5013505;28;20213;-76
2021/05/08 09:34:49;;;;;;;8.23;5.67;;;15.10;98.30;;;;;;5007195;28;20234;-76
2021/05/08 09:37:34;;;;;;;8.57;4.93;;;15.20;99.10;;;;;;5005752;28;20236;-79
2021/05/08 09:40:26;;;;;;;8.37;5.17;;;15.40;97.40;;;;;;5012953;28;20714;-76
2021/05/08 09:43:13;;;;;;;8.23;5.20;;;15.60;97.20;;;;;;5012448;28;20210;-76
2021/05/08 09:45:58;;;;;;;8.00;4.67;;;15.70;97.00;;;;;;5001888;28;20300;-77
2021/05/08 09:48:44;;;;;;;7.13;4.93;;;15.90;96.80;;;;;;5000721;28;20281;-76
2021/05/08 09:51:28;;;;;;;7.77;4.50;;;16.20;95.80;;;;;;5009089;28;20216;-76
2021/05/08 09:54:17;;;;;;;9.73;5.30;;;16.40;95.20;;;;;;5004336;28;20711;-76
2021/05/08 09:57:02;;;;;;;9.37;5.30;;;16.60;94.60;;;;;;5008541;28;20266;-76
2021/05/08 09:59:47;;;;;;;9.23;4.80;;;16.80;93.70;;;;;;5028209;28;20261;-76
2021/05/08 10:02:33;;;;;;;9.07;4.70;;;17.00;92.80;;;;;;5027777;28;20228;-76
2021/05/08 10:05:18;;;;;;;8.17;5.10;;;17.10;92.40;;;;;;5014774;28;20223;-77
2021/05/08 10:08:04;;;;;;;6.87;4.63;;;17.20;92.40;;;;;;5030916;28;20310;-77
2021/05/08 10:10:49;;;;;;;6.03;4.00;;;17.20;91.30;;;;;;5004320;28;20328;-78
2021/05/08 10:13:34;;;;;;;6.13;4.40;;;17.20;91.10;;;;;;5011518;28;20222;-78
2021/05/08 10:16:19;;;;;;;5.13;3.73;;;17.10;91.30;;;;;;5033664;28;20281;-78
2021/05/08 10:19:04;;;;;;;3.43;2.70;;;17.10;90.40;;;;;;5035431;28;20254;-78
2021/05/08 10:21:49;;;;;;;5.27;2.97;;;17.00;90.60;;;;;;5021797;28;20214;-78
2021/05/08 10:24:35;;;;;;;4.27;3.00;;;16.80;91.40;;;;;;5038503;28;20214;-78
2021/05/08 10:27:20;;;;;;;6.27;3.63;;;16.70;92.10;;;;;;5035652;28;20277;-78
2021/05/08 10:30:09;;;;;;;6.07;3.77;;;16.60;91.50;;;;;;5019854;28;20319;-78
2021/05/08 10:32:54;;;;;;;8.80;3.90;;;16.50;91.80;;;;;;5012927;28;20203;-78
2021/05/08 10:35:41;;;;;;;6.30;3.43;;;16.50;92.30;;;;;;5014570;28;20215;-78
2021/05/08 10:38:27;;;;;;;5.37;3.80;;;16.50;92.50;;;;;;4997290;28;20210;-78
2021/05/08 10:41:14;;;;;;;7.03;3.80;;;16.50;92.90;;;;;;5010547;28;20255;-78
2021/05/08 10:44:00;;;;;;;5.07;3.60;;;16.50;92.00;;;;;;5014625;28;20215;-78
2021/05/08 10:46:53;;;;;;;5.73;3.53;;;16.50;91.60;;;;;;5000042;28;20263;-78
2021/05/08 10:49:37;;;;;;;7.13;4.17;;;16.50;92.00;;;;;;5013677;28;20738;-78
2021/05/08 10:52:22;;;;;;;6.37;3.77;;;16.50;92.00;;;;;;5013781;28;20615;-78
2021/05/08 10:55:21;;;;;;;7.47;3.77;;;16.40;91.80;;;;;;5013324;28;20211;-78
2021/05/08 10:58:25;;;;;;;5.87;3.73;;;16.40;92.40;;;;;;5013213;28;20262;-78
2021/05/08 11:01:12;;;;;;;4.50;3.43;;;16.30;93.30;;;;;;5012771;28;20244;-78
2021/05/08 11:04:06;;;;;;;3.80;3.03;;;16.10;92.70;;;;;;5038360;28;20226;-78
2021/05/08 11:07:33;;;;;;;6.20;3.27;;;16.00;93.20;;;;;;5049907;28;20215;-78
2021/05/08 11:10:38;;;;;;;5.73;3.60;;;15.90;93.90;;;;;;5042925;28;20228;-78
2021/05/08 11:13:25;;;;;;;6.33;3.17;;;15.80;92.90;;;;;;5021223;28;20207;-78
2021/05/08 11:16:11;;;;;;;4.93;3.23;;;15.70;94.00;;;;;;5034514;28;20222;-79
2021/05/08 11:18:59;;;;;;;5.93;3.67;;;15.70;94.70;;;;;;5046502;28;20208;-78
2021/05/08 11:21:43;;;;;;;4.67;4.00;;;15.60;95.00;;;;;;5006091;28;20219;-79
2021/05/08 11:24:38;;;;;;;5.70;3.17;;;15.50;96.00;;;;;;5033447;28;20689;-78
2021/05/08 11:27:27;;;;;;;7.60;3.73;;;15.30;98.10;;;;;;5031079;28;20249;-78
2021/05/08 11:30:13;;;;;;;4.50;3.07;;;15.10;97.90;;;;;;5004790;28;20281;-79
2021/05/08 11:32:59;;;;;;;5.87;3.60;;;14.90;99.70;;;;;;5013427;28;20397;-79
2021/05/08 11:35:58;;;;;;;3.40;3.03;;;14.80;99.90;;;;;;5005607;28;20213;-78
2021/05/08 11:38:43;;;;;;;5.77;3.13;;;14.60;99.90;;;;;;5003870;28;20218;-79
2021/05/08 11:41:29;;;;;;;5.10;3.17;;;14.40;99.90;;;;;;5010103;28;20284;-78
2021/05/08 11:44:21;;;;;;;6.27;3.50;;;14.20;99.90;;;;;;5005932;28;20217;-78
2021/05/08 11:50:13;;;;;;;7.10;4.40;;;13.90;99.90;;;;;;5011626;28;20220;-78
2021/05/08 11:52:58;;;;;;;6.40;4.30;;;13.60;99.90;;;;;;5020045;28;20331;-78
2021/05/08 11:55:45;;;;;;;7.07;4.50;;;13.50;99.90;;;;;;5018454;28;20617;-78
2021/05/08 11:58:30;;;;;;;9.23;4.50;;;13.40;99.90;;;;;;5011320;28;20291;-78
2021/05/08 12:01:19;;;;;;;6.73;4.80;;;13.20;99.90;;;;;;5005658;28;20225;-78
2021/05/08 12:04:05;;;;;;;6.63;4.33;;;13.10;99.90;;;;;;5016861;28;20223;-78
2021/05/08 12:07:03;;;;;;;9.33;5.00;;;12.90;99.90;;;;;;5015721;28;20271;-78
2021/05/08 12:09:48;;;;;;;7.23;4.97;;;12.80;99.90;;;;;;5004275;28;20377;-78
2021/05/08 12:12:45;;;;;;;6.13;4.67;;;12.70;99.90;;;;;;5001044;28;20264;-78
2021/05/08 12:15:31;;;;;;;7.47;5.13;;;12.50;99.90;;;;;;5028274;28;20293;-78
2021/05/08 12:18:19;;;;;;;10.17;5.73;;;12.50;99.90;;;;;;5016655;28;20231;-78
2021/05/08 12:21:06;;;;;;;6.83;5.37;;;12.40;99.90;;;;;;5001219;28;20922;-78
2021/05/08 12:23:51;;;;;;;8.13;5.43;;;12.30;99.90;;;;;;5009760;28;20211;-78
2021/05/08 12:26:48;;;;;;;6.70;5.30;;;12.20;99.90;;;;;;5009337;28;20302;-77
2021/05/08 12:29:55;;;;;;;9.83;6.30;;;12.20;99.90;;;;;;5001656;28;20328;-77
2021/05/08 12:32:51;;;;;;;8.13;6.07;;;12.10;99.90;;;;;;5006418;28;20212;-77
2021/05/08 12:35:35;;;;;;;11.20;5.57;;;12.00;99.90;;;;;;5006875;28;20743;-77
2021/05/08 12:38:27;;;;;;;7.03;5.33;;;12.00;99.90;;;;;;4998645;28;20219;-78
2021/05/08 12:41:30;;;;;;;6.33;4.80;;;12.00;99.90;;;;;;5008227;28;20296;-77
2021/05/08 12:44:15;;;;;;;9.07;5.97;;;12.00;99.90;;;;;;5012526;28;20207;-77
2021/05/08 12:47:16;;;;;;;7.33;4.20;;;12.00;99.90;;;;;;5001148;28;20212;-77
2021/05/08 12:50:11;;;;;;;5.90;4.37;;;12.00;99.90;;;;;;5010407;28;20255;-77
2021/05/08 12:53:00;;;;;;;8.40;5.03;;;12.00;99.90;;;;;;5024537;28;20215;-77
2021/05/08 12:55:45;;;;;;;6.63;4.47;;;12.00;99.90;;;;;;5011790;28;20251;-77
2021/05/08 12:58:35;;;;;;;6.67;4.73;;;12.00;99.90;;;;;;5019344;28;20575;-78
2021/05/08 13:01:25;;;;;;;6.43;4.30;;;12.00;99.90;;;;;;5028845;28;20200;-78
2021/05/08 13:04:10;;;;;;;6.03;4.30;;;11.90;99.90;;;;;;5021644;28;20208;-78
2021/05/08 13:06:55;;;;;;;6.30;3.83;;;12.00;99.90;;;;;;5022112;28;20211;-78
2021/05/08 13:09:40;;;;;;;5.30;3.93;;;11.90;99.90;;;;;;5030765;28;20274;-78
2021/05/08 13:12:24;;;;;;;5.80;3.80;;;12.00;99.90;;;;;;5020505;28;20266;-78
2021/05/08 13:15:11;;;;;;;7.13;4.37;;;12.00;99.90;;;;;;5025802;28;20226;-78
2021/05/08 13:17:56;;;;;;;4.20;3.73;;;12.00;99.90;;;;;;5033115;28;20254;-78
2021/05/08 13:20:41;;;;;;;7.00;4.10;;;12.00;99.90;;;;;;5022581;28;20228;-78
2021/05/08 13:23:26;;;;;;;6.77;4.10;;;12.10;99.90;;;;;;5008760;28;20735;-78
2021/05/08 13:26:10;;;;;;;5.57;4.00;;;12.10;99.90;;;;;;5033943;28;20291;-78
2021/05/08 13:28:55;;;;;;;7.97;3.87;;;12.20;99.90;;;;;;5013971;28;20212;-78
2021/05/08 13:31:40;;;;;;;4.17;3.57;;;12.20;99.90;;;;;;5002973;28;20239;-78
2021/05/08 13:34:25;;;;;;;4.00;3.10;;;12.40;99.90;;;;;;5014065;28;20208;-78
2021/05/08 13:37:10;;;;;;;5.30;3.83;;;12.50;99.90;;;;;;5008850;28;20216;-78
2021/05/08 13:39:54;;;;;;;6.13;3.70;;;12.70;99.90;;;;;;5011229;28;20252;-78
2021/05/08 13:42:40;;;;;;;4.03;3.23;;;12.80;99.90;;;;;;5004719;28;20268;-78
2021/05/08 13:45:25;;;;;;;3.90;3.27;;;13.00;99.90;;;;;;5007670;28;20208;-78
2021/05/08 13:48:10;;;;;;;4.40;2.97;;;13.10;99.90;;;;;;5011583;28;20266;-79
2021/05/08 13:50:55;;;;;;;4.53;2.87;;;13.20;99.90;;;;;;5012980;28;20819;-79
2021/05/08 13:53:40;;;;;;;3.57;2.77;;;13.30;99.90;;;;;;4998489;28;20272;-78
2021/05/08 13:56:27;;;;;;;5.70;3.10;;;13.40;99.90;;;;;;5009687;28;20285;-78
2021/05/08 13:59:12;;;;;;;5.33;3.13;;;13.40;99.90;;;;;;5023929;28;20228;-78
2021/05/08 14:01:57;;;;;;;4.43;3.33;;;13.40;99.90;;;;;;5022602;28;20208;-78
2021/05/08 14:04:45;;;;;;;6.30;3.50;;;13.40;99.90;;;;;;5012930;28;20307;-79
2021/05/08 14:07:30;;;;;;;5.73;3.47;;;13.30;99.90;;;;;;5011341;28;20696;-79
2021/05/08 14:10:14;;;;;;;5.57;3.80;;;13.20;99.90;;;;;;5012873;28;20239;-79
2021/05/08 14:12:59;;;;;;;4.67;3.40;;;13.30;99.90;;;;;;5013308;28;20622;-79
2021/05/08 14:15:44;;;;;;;5.87;4.27;;;13.20;99.90;;;;;;5010242;28;20269;-79
2021/05/08 14:18:29;;;;;;;5.97;3.67;;;13.20;99.90;;;;;;5013243;28;20236;-78
2021/05/08 14:21:14;;;;;;;6.97;4.03;;;13.10;99.90;;;;;;5011060;28;20216;-77
2021/05/08 14:23:59;;;;;;;6.40;4.30;;;13.00;99.90;;;;;;5013118;28;20695;-80